Time;durP1;ratioP1;P1;durP2;ratioP2;P2;SDS_P1;SDS_P2;PMS_P1;PMS_P2;Temp;Humidity;BMP_temperature;BMP_pressure;BME280_temperature;BME280_humidity;BME280_pressure;Samples;Min_cycle;Max_cycle;Signal;HPM_P1;HPM_P2
2021/05/07 00:00:38;;;;;;;2.30;1.63;;;7.90;99.90;;;;;;5073944;28;20210;-72
2021/05/07 00:03:04;;;;;;;2.37;2.17;;;7.80;99.90;;;;;;5033963;28;20528;-71
2021/05/07 00:05:30;;;;;;;2.20;1.87;;;7.80;99.90;;;;;;5066689;28;20456;-71
2021/05/07 00:07:56;;;;;;;3.33;2.00;;;7.90;99.90;;;;;;5060448;28;20449;-71
2021/05/07 00:10:23;;;;;;;1.87;1.70;;;7.90;99.90;;;;;;5065169;28;20344;-70
2021/05/07 00:12:49;;;;;;;3.20;1.83;;;7.90;99.90;;;;;;5073654;28;20221;-71
2021/05/07 00:15:15;;;;;;;2.50;2.10;;;7.90;99.90;;;;;;5042405;28;20445;-70
2021/05/07 00:17:40;;;;;;;3.07;1.73;;;7.90;99.90;;;;;;5050885;28;20604;-71
2021/05/07 00:20:07;;;;;;;2.50;2.10;;;8.00;99.90;;;;;;5036094;28;20353;-71
2021/05/07 00:22:32;;;;;;;3.43;2.00;;;8.00;99.90;;;;;;5053036;28;20230;-71
2021/05/07 00:24:58;;;;;;;4.47;2.13;;;8.00;99.90;;;;;;5077948;28;20457;-71
2021/05/07 00:27:24;;;;;;;2.43;2.13;;;8.00;99.90;;;;;;5056104;28;20231;-70
2021/05/07 00:29:49;;;;;;;2.37;2.07;;;8.00;99.90;;;;;;5069439;28;20223;-71
2021/05/07 00:32:15;;;;;;;3.10;2.20;;;8.00;99.90;;;;;;5070116;28;20278;-71
2021/05/07 00:34:41;;;;;;;2.50;2.30;;;8.00;99.90;;;;;;5070125;28;20273;-72
2021/05/07 00:37:07;;;;;;;2.67;2.20;;;7.90;99.90;;;;;;5035027;28;20228;-71
2021/05/07 00:39:32;;;;;;;2.30;2.10;;;7.90;99.90;;;;;;5065139;28;20280;-71
2021/05/07 00:42:05;;;;;;;3.30;1.93;;;7.80;99.90;;;;;;5056298;28;20588;-71
2021/05/07 00:44:33;;;;;;;2.83;2.20;;;7.80;99.90;;;;;;5041507;28;20706;-71
2021/05/07 00:47:06;;;;;;;2.33;2.13;;;7.80;99.90;;;;;;5066102;28;20535;-72
2021/05/07 00:49:37;;;;;;;2.20;2.00;;;7.80;99.90;;;;;;5033754;28;20999;-72
2021/05/07 00:52:07;;;;;;;2.10;1.87;;;7.80;99.90;;;;;;5053187;28;20965;-71
2021/05/07 00:54:35;;;;;;;2.33;1.83;;;7.90;99.90;;;;;;5036716;28;20464;-71
2021/05/07 00:57:03;;;;;;;1.73;1.63;;;7.90;99.90;;;;;;5039788;28;20219;-70
2021/05/07 00:59:29;;;;;;;1.93;1.83;;;8.00;99.90;;;;;;5068437;28;20473;-71
2021/05/07 01:01:55;;;;;;;1.53;1.43;;;8.00;99.90;;;;;;5077196;28;20509;-72
2021/05/07 01:04:21;;;;;;;2.20;1.83;;;8.10;99.90;;;;;;5025200;28;21024;-72
2021/05/07 01:06:47;;;;;;;3.27;2.10;;;8.10;99.90;;;;;;5035449;28;20242;-71
2021/05/07 01:09:13;;;;;;;2.40;1.70;;;8.10;99.90;;;;;;5068643;28;20226;-70
2021/05/07 01:11:40;;;;;;;2.23;1.80;;;8.10;99.90;;;;;;5049510;28;20367;-71
2021/05/07 01:14:06;;;;;;;2.23;1.90;;;8.10;99.90;;;;;;5056090;28;20445;-71
2021/05/07 01:16:32;;;;;;;4.77;1.90;;;8.20;99.90;;;;;;5027256;28;20499;-71
2021/05/07 01:19:00;;;;;;;2.30;1.80;;;8.20;99.90;;;;;;5051866;28;20908;-70
2021/05/07 01:21:29;;;;;;;1.67;1.57;;;8.30;99.90;;;;;;5051827;28;20457;-72
2021/05/07 01:23:56;;;;;;;1.80;1.50;;;8.20;99.90;;;;;;5060131;28;20458;-71
2021/05/07 01:26:22;;;;;;;1.53;1.40;;;8.20;99.90;;;;;;5080649;28;20558;-71
2021/05/07 01:28:48;;;;;;;2.07;1.53;;;8.20;99.90;;;;;;5035349;28;20508;-71
2021/05/07 01:31:14;;;;;;;2.10;1.47;;;8.20;99.90;;;;;;5036003;28;20246;-70
2021/05/07 01:33:40;;;;;;;2.60;1.87;;;8.30;99.90;;;;;;5039392;28;20454;-71
2021/05/07 01:36:07;;;;;;;1.73;1.63;;;8.30;99.90;;;;;;5063128;28;20456;-71
2021/05/07 01:38:34;;;;;;;3.70;2.43;;;8.30;99.90;;;;;;5051894;28;20457;-71
2021/05/07 01:41:01;;;;;;;3.70;2.50;;;8.30;99.90;;;;;;5035919;28;20449;-71
2021/05/07 01:43:33;;;;;;;1.97;1.77;;;8.30;99.90;;;;;;5036804;28;20466;-71
2021/05/07 01:46:01;;;;;;;1.93;1.40;;;8.20;99.90;;;;;;5020189;28;20434;-71
2021/05/07 01:48:27;;;;;;;3.60;2.27;;;8.30;99.90;;;;;;5064277;28;20453;-71
2021/05/07 01:50:53;;;;;;;2.30;2.10;;;8.30;99.90;;;;;;5056102;28;20211;-71
2021/05/07 01:53:19;;;;;;;2.10;1.70;;;8.20;99.90;;;;;;5036595;28;20230;-71
2021/05/07 01:55:47;;;;;;;3.67;2.30;;;8.20;99.90;;;;;;5057666;28;20245;-71
2021/05/07 01:58:21;;;;;;;3.77;2.40;;;8.20;99.90;;;;;;5044859;28;20464;-71
2021/05/07 02:01:30;;;;;;;1.93;1.77;;;8.20;99.90;;;;;;5034088;28;20509;-71
2021/05/07 02:03:58;;;;;;;2.10;1.90;;;8.20;99.90;;;;;;5048921;28;20533;-71
2021/05/07 02:06:36;;;;;;;4.43;2.80;;;8.20;99.90;;;;;;5023738;28;20540;-71
2021/05/07 02:09:02;;;;;;;2.77;2.27;;;8.10;99.90;;;;;;5038563;28;20692;-71
2021/05/07 02:11:28;;;;;;;2.53;2.10;;;8.10;99.90;;;;;;5035552;28;20223;-71
2021/05/07 02:13:53;;;;;;;3.03;2.73;;;8.00;99.90;;;;;;5051727;28;20867;-71
2021/05/07 02:16:19;;;;;;;4.33;2.90;;;8.00;99.90;;;;;;5039708;28;20276;-71
2021/05/07 02:18:46;;;;;;;4.27;2.77;;;7.90;99.90;;;;;;5053739;28;20218;-69
2021/05/07 02:21:14;;;;;;;3.10;2.63;;;7.80;99.90;;;;;;5050644;28;20476;-71
2021/05/07 02:23:47;;;;;;;5.53;3.50;;;7.80;99.90;;;;;;5048464;28;20480;-68
2021/05/07 02:26:13;;;;;;;3.20;2.53;;;7.80;99.90;;;;;;5065427;28;20488;-72
2021/05/07 02:28:45;;;;;;;3.40;3.10;;;7.80;99.90;;;;;;5041453;28;20970;-71
2021/05/07 02:31:12;;;;;;;3.77;2.37;;;7.80;99.90;;;;;;5038532;28;20511;-71
2021/05/07 02:33:40;;;;;;;3.50;2.77;;;7.80;99.90;;;;;;5046410;28;20446;-71
2021/05/07 02:36:08;;;;;;;2.70;2.40;;;7.80;99.90;;;;;;5053299;28;20453;-71
2021/05/07 02:38:37;;;;;;;4.70;2.57;;;7.90;99.90;;;;;;5049299;28;20459;-71
2021/05/07 02:41:03;;;;;;;3.23;2.80;;;7.90;99.90;;;;;;5085367;28;20869;-71
2021/05/07 02:43:30;;;;;;;3.67;2.60;;;7.80;99.90;;;;;;5055211;28;20489;-71
2021/05/07 02:45:56;;;;;;;3.47;2.70;;;7.80;99.90;;;;;;5068240;28;20752;-70
2021/05/07 02:48:22;;;;;;;2.67;2.40;;;7.80;99.90;;;;;;5058819;28;20455;-71
2021/05/07 02:50:47;;;;;;;3.27;2.90;;;7.70;99.90;;;;;;5058656;28;20210;-72
2021/05/07 02:53:14;;;;;;;3.67;2.90;;;7.70;99.90;;;;;;5072413;28;20215;-71
2021/05/07 02:55:40;;;;;;;4.60;3.70;;;7.70;99.90;;;;;;5055407;28;20453;-71
2021/05/07 02:58:06;;;;;;;4.53;3.20;;;7.60;99.90;;;;;;5050385;28;20459;-71
2021/05/07 03:00:32;;;;;;;3.57;2.63;;;7.60;99.90;;;;;;5039877;28;20299;-71
2021/05/07 03:02:58;;;;;;;3.70;3.10;;;7.70;99.90;;;;;;5058378;28;20260;-70
2021/05/07 03:05:23;;;;;;;3.57;3.00;;;7.70;99.90;;;;;;5058909;28;20207;-70
2021/05/07 03:07:49;;;;;;;3.33;2.70;;;7.70;99.90;;;;;;5083757;28;20229;-70
2021/05/07 03:10:15;;;;;;;4.30;3.20;;;7.80;99.90;;;;;;5041484;28;20552;-70
2021/05/07 03:12:40;;;;;;;8.60;4.57;;;7.80;99.90;;;;;;5041686;28;20241;-70
2021/05/07 03:15:07;;;;;;;6.97;5.03;;;7.80;99.90;;;;;;5074669;28;20215;-71
2021/05/07 03:17:33;;;;;;;7.83;5.30;;;7.90;99.90;;;;;;5038517;28;20307;-71
2021/05/07 03:19:59;;;;;;;7.00;5.77;;;7.90;99.90;;;;;;5037958;28;20540;-72
2021/05/07 03:22:24;;;;;;;10.00;6.47;;;7.80;99.90;;;;;;5045890;28;20437;-71
2021/05/07 03:24:50;;;;;;;10.37;5.60;;;7.80;99.90;;;;;;5087828;28;20235;-71
2021/05/07 03:27:17;;;;;;;9.40;6.73;;;7.80;99.90;;;;;;5025817;28;20306;-71
2021/05/07 03:29:42;;;;;;;6.33;5.03;;;7.80;99.90;;;;;;5079120;28;20702;-71
2021/05/07 03:32:13;;;;;;;9.73;5.80;;;7.70;99.90;;;;;;5071931;28;20453;-70
2021/05/07 03:34:39;;;;;;;13.00;6.73;;;7.70;99.90;;;;;;5058011;28;20294;-72
2021/05/07 03:37:05;;;;;;;9.30;6.57;;;7.70;99.90;;;;;;5033140;28;20971;-71
2021/05/07 03:39:31;;;;;;;8.67;5.77;;;7.70;99.90;;;;;;5066767;28;20348;-71
2021/05/07 03:41:56;;;;;;;9.43;6.30;;;7.70;99.90;;;;;;5064149;28;20211;-71
2021/05/07 03:44:22;;;;;;;11.70;6.50;;;7.80;99.90;;;;;;5036633;28;20245;-70
2021/05/07 03:46:48;;;;;;;10.23;6.63;;;7.70;99.90;;;;;;5054280;28;20222;-71
2021/05/07 03:49:14;;;;;;;9.70;6.47;;;7.70;99.90;;;;;;5054417;28;20462;-71
2021/05/07 03:51:39;;;;;;;10.60;7.07;;;7.70;99.90;;;;;;5058790;28;20214;-71
2021/05/07 03:54:06;;;;;;;9.50;5.83;;;7.70;99.90;;;;;;5049842;28;20309;-70
2021/05/07 03:56:32;;;;;;;12.90;8.07;;;7.70;99.90;;;;;;5068181;28;21239;-71
2021/05/07 03:58:57;;;;;;;14.40;9.00;;;7.70;99.90;;;;;;5040568;28;20226;-71
2021/05/07 04:01:24;;;;;;;12.10;8.17;;;7.70;99.90;;;;;;5057830;28;20270;-71
2021/05/07 04:03:51;;;;;;;8.93;6.43;;;7.80;99.90;;;;;;5040854;28;20225;-71
2021/05/07 04:06:19;;;;;;;9.47;6.77;;;7.80;99.90;;;;;;5092478;28;20483;-71
2021/05/07 04:08:54;;;;;;;8.70;6.27;;;7.80;99.90;;;;;;5045486;28;20481;-71
2021/05/07 04:11:33;;;;;;;7.87;5.37;;;7.80;99.90;;;;;;5074593;28;20821;-71
2021/05/07 04:13:58;;;;;;;7.50;4.77;;;7.80;99.90;;;;;;5071818;28;20441;-72
2021/05/07 04:16:24;;;;;;;8.27;5.50;;;7.80;99.90;;;;;;5057616;28;20453;-71
2021/05/07 04:18:54;;;;;;;8.13;5.23;;;7.80;99.90;;;;;;5044150;28;20230;-70
2021/05/07 04:21:19;;;;;;;8.17;5.10;;;7.80;99.90;;;;;;5056390;28;20223;-70
2021/05/07 04:23:45;;;;;;;8.93;5.90;;;7.70;99.90;;;;;;5073539;28;20472;-71
2021/05/07 04:26:11;;;;;;;9.17;5.87;;;7.70;99.90;;;;;;5019707;28;20302;-71
2021/05/07 04:28:36;;;;;;;6.10;4.40;;;7.80;99.90;;;;;;5084487;28;20284;-71
2021/05/07 04:31:02;;;;;;;7.27;4.63;;;7.80;99.90;;;;;;5060915;28;20218;-70
2021/05/07 04:34:09;;;;;;;6.30;4.30;;;7.80;99.90;;;;;;5038378;28;20303;-71
2021/05/07 04:36:35;;;;;;;5.83;4.00;;;7.80;99.90;;;;;;5052815;28;20216;-71
2021/05/07 04:39:00;;;;;;;7.20;4.03;;;7.90;99.90;;;;;;5026599;28;20478;-71
2021/05/07 04:41:26;;;;;;;6.43;5.00;;;7.90;99.90;;;;;;5030319;28;20588;-71
2021/05/07 04:43:52;;;;;;;5.80;4.60;;;7.90;99.90;;;;;;5029905;28;20248;-70
2021/05/07 04:46:18;;;;;;;6.10;4.53;;;7.90;99.90;;;;;;5055333;28;20217;-71
2021/05/07 04:48:43;;;;;;;6.37;4.50;;;7.80;99.90;;;;;;5029474;28;20652;-71
2021/05/07 04:51:09;;;;;;;7.33;4.67;;;7.80;99.90;;;;;;5038961;28;20223;-70
2021/05/07 04:53:35;;;;;;;7.33;4.77;;;7.80;99.90;;;;;;5013496;28;20246;-72
2021/05/07 04:56:01;;;;;;;5.60;4.57;;;7.80;99.90;;;;;;5033142;28;20215;-71
2021/05/07 04:58:26;;;;;;;5.97;4.20;;;7.80;99.90;;;;;;5050346;28;20250;-71
2021/05/07 05:00:52;;;;;;;7.13;4.80;;;7.80;99.90;;;;;;5051989;28;20683;-71
2021/05/07 05:03:18;;;;;;;7.17;4.47;;;7.80;99.90;;;;;;5080584;28;20297;-71
2021/05/07 05:05:43;;;;;;;7.30;4.53;;;7.80;99.90;;;;;;5013500;28;20679;-71
2021/05/07 05:08:09;;;;;;;4.30;3.57;;;7.80;99.90;;;;;;5018349;28;20617;-70
2021/05/07 05:10:35;;;;;;;7.17;4.87;;;7.80;99.90;;;;;;5039753;28;20381;-71
2021/05/07 05:13:00;;;;;;;7.03;4.30;;;7.80;99.90;;;;;;5072644;28;20685;-71
2021/05/07 05:15:26;;;;;;;6.10;4.13;;;7.80;99.90;;;;;;5083574;28;20206;-71
2021/05/07 05:17:52;;;;;;;5.90;4.17;;;7.80;99.90;;;;;;5032970;28;20298;-71
2021/05/07 05:20:18;;;;;;;4.90;4.30;;;7.80;99.90;;;;;;5035955;28;20245;-71
2021/05/07 05:22:43;;;;;;;8.07;4.63;;;7.70;99.90;;;;;;5040958;28;20206;-70
2021/05/07 05:25:10;;;;;;;6.73;4.37;;;7.70;99.90;;;;;;5064581;28;21007;-71
2021/05/07 05:27:36;;;;;;;4.60;3.70;;;7.60;99.90;;;;;;5038099;28;20226;-71
2021/05/07 05:30:04;;;;;;;4.63;3.80;;;7.50;99.90;;;;;;5068817;28;20522;-71
2021/05/07 05:37:27;;;;;;;6.77;3.87;;;7.40;99.90;;;;;;5043126;28;20547;-71
2021/05/07 05:39:52;;;;;;;5.97;4.20;;;7.40;99.90;;;;;;5036900;28;20477;-71
2021/05/07 05:42:18;;;;;;;5.77;4.17;;;7.50;99.90;;;;;;5030738;28;20534;-71
2021/05/07 05:44:44;;;;;;;6.67;4.27;;;7.50;99.90;;;;;;5033105;28;20347;-70
2021/05/07 05:47:09;;;;;;;6.57;4.10;;;7.50;99.90;;;;;;5024740;28;20219;-70
2021/05/07 05:49:35;;;;;;;7.10;5.70;;;7.50;99.90;;;;;;5035567;28;20381;-71
2021/05/07 05:52:01;;;;;;;5.57;4.40;;;7.40;99.90;;;;;;5043443;28;20453;-71
2021/05/07 05:54:26;;;;;;;9.07;5.07;;;7.40;99.90;;;;;;5004540;28;20300;-71
2021/05/07 05:56:52;;;;;;;11.03;6.03;;;7.50;99.90;;;;;;5034346;28;20220;-70
2021/05/07 05:59:18;;;;;;;6.23;4.70;;;7.40;99.90;;;;;;5033464;28;20235;-70
2021/05/07 06:01:43;;;;;;;8.77;4.60;;;7.40;99.90;;;;;;5026775;28;20219;-71
2021/05/07 06:04:09;;;;;;;7.27;5.03;;;7.40;99.90;;;;;;5069114;28;20246;-71
2021/05/07 06:06:35;;;;;;;9.70;5.60;;;7.40;99.90;;;;;;5052534;28;20219;-71
2021/05/07 06:09:00;;;;;;;7.70;5.00;;;7.40;99.90;;;;;;5035150;28;20226;-71
2021/05/07 06:11:26;;;;;;;9.97;6.40;;;7.30;99.90;;;;;;5052323;28;20661;-72
2021/05/07 06:13:52;;;;;;;10.07;5.87;;;7.40;99.90;;;;;;5041002;28;20219;-71
2021/05/07 06:16:17;;;;;;;9.03;6.53;;;7.40;99.90;;;;;;5017057;28;20294;-71
2021/05/07 06:18:43;;;;;;;8.00;4.87;;;7.40;99.90;;;;;;5061246;28;20225;-71
2021/05/07 06:21:09;;;;;;;9.53;6.13;;;7.40;99.90;;;;;;5031358;28;20245;-71
2021/05/07 06:23:34;;;;;;;9.70;5.17;;;7.40;99.90;;;;;;5053403;28;20750;-71
2021/05/07 06:26:02;;;;;;;9.87;6.60;;;7.40;99.90;;;;;;5024583;28;20257;-71
2021/05/07 06:28:28;;;;;;;9.63;5.93;;;7.50;99.90;;;;;;5068633;28;20215;-71
2021/05/07 06:30:57;;;;;;;11.53;6.80;;;7.50;99.90;;;;;;5071310;28;20461;-71
2021/05/07 06:33:23;;;;;;;11.40;6.50;;;7.50;99.90;;;;;;5066900;28;20249;-71
2021/05/07 06:35:49;;;;;;;12.07;7.17;;;7.50;99.90;;;;;;5043844;28;20461;-71
2021/05/07 06:38:14;;;;;;;12.67;7.30;;;7.60;99.90;;;;;;5039499;28;20227;-71
2021/05/07 06:40:40;;;;;;;11.27;7.10;;;7.60;99.90;;;;;;5038543;28;20211;-71
2021/05/07 06:43:06;;;;;;;14.10;7.83;;;7.60;99.90;;;;;;5039009;28;20215;-71
2021/05/07 06:45:32;;;;;;;7.53;5.40;;;7.60;99.90;;;;;;5039960;28;20215;-71
2021/05/07 06:47:58;;;;;;;9.20;6.13;;;7.70;99.90;;;;;;5054996;28;20630;-70
2021/05/07 06:50:25;;;;;;;12.47;6.80;;;7.80;99.90;;;;;;5067274;28;20539;-71
2021/05/07 06:52:51;;;;;;;10.47;7.13;;;7.80;99.90;;;;;;5046719;28;20219;-71
2021/05/07 06:55:17;;;;;;;11.50;5.50;;;7.80;99.90;;;;;;5095551;28;20445;-73
2021/05/07 06:57:42;;;;;;;11.80;6.70;;;7.80;99.90;;;;;;5038510;28;20215;-72
2021/05/07 07:00:10;;;;;;;13.13;6.60;;;7.90;99.90;;;;;;5047388;28;20678;-71
2021/05/07 07:02:35;;;;;;;13.10;6.00;;;8.00;99.90;;;;;;5024906;28;20219;-72
2021/05/07 07:05:01;;;;;;;12.60;7.90;;;8.10;99.90;;;;;;5051873;28;20867;-72
2021/05/07 07:07:28;;;;;;;12.60;7.50;;;8.10;99.90;;;;;;5035002;28;20330;-70
2021/05/07 07:09:54;;;;;;;7.10;6.17;;;8.00;99.90;;;;;;5051157;28;20218;-70
2021/05/07 07:12:20;;;;;;;11.80;7.67;;;8.00;99.90;;;;;;5052826;28;20448;-71
2021/05/07 07:14:46;;;;;;;12.83;5.90;;;8.00;99.90;;;;;;5068001;28;21039;-70
2021/05/07 07:17:12;;;;;;;9.50;6.63;;;8.10;99.90;;;;;;5072087;28;20553;-71
2021/05/07 07:19:38;;;;;;;9.30;6.57;;;8.10;99.90;;;;;;5065833;28;20236;-71
2021/05/07 07:22:04;;;;;;;7.80;5.80;;;8.10;99.90;;;;;;5058348;28;20218;-70
2021/05/07 07:24:30;;;;;;;8.63;5.80;;;8.10;99.90;;;;;;5091729;28;20226;-71
2021/05/07 07:26:56;;;;;;;11.67;6.57;;;8.20;99.90;;;;;;5077553;28;20523;-71
2021/05/07 07:29:22;;;;;;;10.60;5.87;;;8.20;99.90;;;;;;5037855;28;20280;-68
2021/05/07 07:31:50;;;;;;;10.03;6.20;;;8.30;99.90;;;;;;5037019;28;20234;-68
2021/05/07 07:34:16;;;;;;;8.70;6.00;;;8.40;99.90;;;;;;5045948;28;20522;-70
2021/05/07 07:36:42;;;;;;;8.97;5.47;;;8.40;99.90;;;;;;5067878;28;20877;-71
2021/05/07 07:39:08;;;;;;;11.20;6.00;;;8.50;99.90;;;;;;5054039;28;20258;-70
2021/05/07 07:41:33;;;;;;;9.00;5.43;;;8.60;99.90;;;;;;5083956;28;20507;-70
2021/05/07 07:43:59;;;;;;;8.37;5.90;;;8.70;99.90;;;;;;5066610;28;20227;-71
2021/05/07 07:46:51;;;;;;;8.60;6.10;;;8.70;99.90;;;;;;5056875;28;20271;-71
2021/05/07 07:49:17;;;;;;;9.00;5.37;;;8.80;99.90;;;;;;5040768;28;20227;-69
2021/05/07 07:51:43;;;;;;;9.10;5.30;;;8.90;99.90;;;;;;5045037;28;20470;-72
2021/05/07 07:54:11;;;;;;;6.80;4.70;;;8.90;99.90;;;;;;5065971;28;20231;-70
2021/05/07 07:56:41;;;;;;;7.90;5.27;;;9.00;99.90;;;;;;5090474;28;20452;-71
2021/05/07 07:59:06;;;;;;;7.63;5.63;;;9.10;99.90;;;;;;5065819;28;21032;-71
2021/05/07 08:01:32;;;;;;;16.80;6.07;;;9.20;99.90;;;;;;5049430;28;20222;-71
2021/05/07 08:03:58;;;;;;;8.90;5.87;;;9.20;99.90;;;;;;5071133;28;20233;-71
2021/05/07 08:06:24;;;;;;;10.97;6.97;;;9.30;99.90;;;;;;5047653;28;20597;-71
2021/05/07 08:08:50;;;;;;;9.33;5.60;;;9.30;99.90;;;;;;5041748;28;20264;-70
2021/05/07 08:11:16;;;;;;;6.90;4.97;;;9.40;99.90;;;;;;5067225;28;20247;-71
2021/05/07 08:13:42;;;;;;;7.20;5.07;;;9.40;99.90;;;;;;5066727;28;20486;-71
2021/05/07 08:16:08;;;;;;;6.57;4.30;;;9.50;99.90;;;;;;5065859;28;20514;-71
2021/05/07 08:18:33;;;;;;;8.10;5.10;;;9.60;99.90;;;;;;5036400;28;20532;-70
2021/05/07 08:20:59;;;;;;;7.10;5.30;;;9.70;99.90;;;;;;5036163;28;20215;-71
2021/05/07 08:23:25;;;;;;;7.50;5.23;;;9.80;99.90;;;;;;5035503;28;20595;-71
2021/05/07 08:25:50;;;;;;;8.83;5.80;;;9.90;99.90;;;;;;5052896;28;20298;-71
2021/05/07 08:28:16;;;;;;;12.63;7.03;;;9.90;99.90;;;;;;5055710;28;20231;-71
2021/05/07 08:30:42;;;;;;;8.00;6.50;;;10.00;99.90;;;;;;5066542;28;20223;-70
2021/05/07 08:33:09;;;;;;;11.83;6.53;;;10.10;99.90;;;;;;5065325;28;20214;-71
2021/05/07 08:35:35;;;;;;;8.57;6.10;;;10.20;99.90;;;;;;5090569;28;20628;-71
2021/05/07 08:38:00;;;;;;;9.50;6.47;;;10.30;99.90;;;;;;5091234;28;20433;-71
2021/05/07 08:40:27;;;;;;;11.97;6.50;;;10.40;99.90;;;;;;5067487;28;20240;-71
2021/05/07 08:42:54;;;;;;;8.43;5.87;;;10.50;99.90;;;;;;5064602;28;20210;-71
2021/05/07 08:45:20;;;;;;;12.50;8.03;;;10.50;99.90;;;;;;5073326;28;20465;-71
2021/05/07 08:47:50;;;;;;;10.27;6.00;;;10.60;99.90;;;;;;5089932;28;20498;-71
2021/05/07 08:50:16;;;;;;;9.53;6.50;;;10.60;99.90;;;;;;5090050;28;20233;-72
2021/05/07 08:52:41;;;;;;;10.70;5.93;;;10.70;99.90;;;;;;5074374;28;20536;-72
2021/05/07 08:55:07;;;;;;;13.97;9.00;;;10.80;99.90;;;;;;5027871;28;20297;-71
2021/05/07 08:57:34;;;;;;;14.67;8.27;;;11.00;99.90;;;;;;5042373;28;20223;-72
2021/05/07 09:00:00;;;;;;;10.73;6.90;;;11.00;99.90;;;;;;5044355;28;20532;-72
2021/05/07 09:02:30;;;;;;;8.90;5.93;;;11.00;99.90;;;;;;5041919;28;20543;-71
2021/05/07 09:04:58;;;;;;;7.90;5.20;;;11.00;99.90;;;;;;5047443;28;20764;-72
2021/05/07 09:07:24;;;;;;;6.80;4.80;;;11.00;99.90;;;;;;5070550;28;20453;-71
2021/05/07 09:09:55;;;;;;;4.20;3.70;;;10.90;99.90;;;;;;5035481;28;20464;-72
2021/05/07 09:12:33;;;;;;;4.57;3.70;;;10.90;99.90;;;;;;5038420;28;20456;-71
2021/05/07 09:15:00;;;;;;;5.40;4.13;;;10.90;99.90;;;;;;5072473;28;20452;-71
2021/05/07 09:17:29;;;;;;;5.73;3.97;;;10.90;99.90;;;;;;5027746;28;20456;-71
2021/05/07 09:20:10;;;;;;;5.13;3.70;;;10.80;99.90;;;;;;5035409;28;20457;-71
2021/05/07 09:22:36;;;;;;;5.00;3.90;;;10.80;99.90;;;;;;5035592;28;21176;-69
2021/05/07 09:25:17;;;;;;;7.10;3.90;;;10.80;99.90;;;;;;5068765;28;20481;-71
2021/05/07 09:27:43;;;;;;;6.20;4.10;;;10.70;99.90;;;;;;5067709;28;20464;-71
2021/05/07 09:30:29;;;;;;;7.03;4.30;;;10.70;99.90;;;;;;5037751;28;20963;-71
2021/05/07 09:32:56;;;;;;;4.83;3.67;;;10.60;99.90;;;;;;5070755;28;20514;-71
2021/05/07 09:35:26;;;;;;;6.30;3.70;;;10.60;99.90;;;;;;5072888;28;20463;-71
2021/05/07 09:38:00;;;;;;;4.03;3.10;;;10.70;99.90;;;;;;5050099;28;20555;-71
2021/05/07 09:40:26;;;;;;;4.30;3.50;;;10.70;98.90;;;;;;5060258;28;20446;-72
2021/05/07 09:43:24;;;;;;;4.17;3.10;;;10.50;97.80;;;;;;5032745;28;20465;-71
2021/05/07 09:45:51;;;;;;;3.80;2.63;;;10.40;97.80;;;;;;5057520;28;20460;-71
2021/05/07 09:48:20;;;;;;;5.37;3.10;;;10.40;97.80;;;;;;5071154;28;20986;-71
2021/05/07 09:50:47;;;;;;;2.73;2.53;;;10.40;98.40;;;;;;5071736;28;20602;-71
2021/05/07 09:53:15;;;;;;;3.70;3.20;;;10.50;99.10;;;;;;5052371;28;20450;-71
2021/05/07 09:55:44;;;;;;;4.17;3.70;;;10.50;99.10;;;;;;5069851;28;20445;-72
2021/05/07 09:58:10;;;;;;;4.63;3.17;;;10.60;99.50;;;;;;5036756;28;20819;-72
2021/05/07 10:00:36;;;;;;;5.03;2.80;;;10.60;99.30;;;;;;5047034;28;20524;-72
2021/05/07 10:03:02;;;;;;;5.53;3.20;;;10.70;99.40;;;;;;5071544;28;20209;-71
2021/05/07 10:05:28;;;;;;;2.83;2.40;;;10.70;98.40;;;;;;5047436;28;20461;-71
2021/05/07 10:07:57;;;;;;;6.07;5.10;;;10.80;98.60;;;;;;5051224;28;20633;-72
2021/05/07 10:10:28;;;;;;;4.90;3.83;;;10.70;98.80;;;;;;5069185;28;20460;-71
2021/05/07 10:12:57;;;;;;;6.97;3.20;;;10.50;99.90;;;;;;5033631;28;20458;-71
2021/05/07 10:15:40;;;;;;;5.83;3.27;;;10.40;99.90;;;;;;5061526;28;20527;-72
2021/05/07 10:18:07;;;;;;;4.83;2.23;;;10.40;99.90;;;;;;5049516;28;20470;-72
2021/05/07 10:20:34;;;;;;;1.90;1.63;;;10.30;99.90;;;;;;5015251;28;20453;-70
2021/05/07 10:23:12;;;;;;;2.77;2.50;;;10.20;99.90;;;;;;5031670;28;20469;-71
2021/05/07 10:25:38;;;;;;;2.33;2.13;;;10.10;99.90;;;;;;5031443;28;20904;-73
2021/05/07 10:28:14;;;;;;;2.90;2.17;;;10.20;99.90;;;;;;5059341;28;20496;-72
2021/05/07 10:30:40;;;;;;;5.13;2.83;;;10.30;99.90;;;;;;5041978;28;20999;-72
2021/05/07 10:33:15;;;;;;;5.23;3.50;;;10.40;99.90;;;;;;5009136;28;20445;-71
2021/05/07 10:35:42;;;;;;;3.77;2.90;;;10.50;99.90;;;;;;5063575;28;20230;-71
2021/05/07 10:38:12;;;;;;;4.93;3.60;;;10.70;99.90;;;;;;5060532;28;20492;-72
2021/05/07 10:40:39;;;;;;;4.87;3.40;;;10.90;99.90;;;;;;5067646;28;20458;-71
2021/05/07 10:46:24;;;;;;;4.13;3.27;;;11.10;99.90;;;;;;5042083;28;20462;-72
2021/05/07 10:48:57;;;;;;;7.40;4.17;;;11.20;99.90;;;;;;5026049;28;20469;-71
2021/05/07 10:51:25;;;;;;;3.73;2.90;;;11.10;99.90;;;;;;5000807;28;20450;-72
2021/05/07 10:53:52;;;;;;;4.20;3.27;;;11.20;99.90;;;;;;5031580;28;20450;-71
2021/05/07 10:56:23;;;;;;;5.33;2.40;;;11.00;99.90;;;;;;5035774;28;20443;-72
2021/05/07 10:58:50;;;;;;;3.30;3.00;;;10.60;99.90;;;;;;5041757;28;20529;-71
2021/05/07 11:01:25;;;;;;;3.70;3.10;;;10.40;99.90;;;;;;5060451;28;20469;-71
2021/05/07 11:04:00;;;;;;;2.80;2.60;;;10.50;99.90;;;;;;5067253;28;20477;-72
2021/05/07 11:06:44;;;;;;;2.70;2.50;;;10.60;99.90;;;;;;5038237;28;20827;-72
2021/05/07 11:09:23;;;;;;;2.23;2.03;;;10.60;99.90;;;;;;5039950;28;20819;-72
2021/05/07 11:11:54;;;;;;;2.50;2.30;;;10.60;99.90;;;;;;5037881;28;20457;-72
2021/05/07 11:14:22;;;;;;;3.17;2.70;;;10.70;99.90;;;;;;5051061;28;20449;-71
2021/05/07 11:16:49;;;;;;;2.67;2.30;;;10.70;99.90;;;;;;5067018;28;20457;-72
2021/05/07 11:19:31;;;;;;;1.83;1.67;;;10.60;99.90;;;;;;5045024;28;20541;-72
2021/05/07 11:21:59;;;;;;;2.60;2.37;;;10.60;99.90;;;;;;5037369;28;20452;-72
2021/05/07 11:24:26;;;;;;;4.57;2.27;;;10.60;99.90;;;;;;5068670;28;20468;-72
2021/05/07 11:26:52;;;;;;;3.13;2.33;;;10.70;99.90;;;;;;5066448;28;20453;-72
2021/05/07 11:29:26;;;;;;;1.97;1.87;;;10.90;99.90;;;;;;5054731;28;20457;-69
2021/05/07 11:31:52;;;;;;;3.07;2.77;;;11.20;99.90;;;;;;5069484;28;20490;-70
2021/05/07 11:34:25;;;;;;;2.00;1.90;;;11.10;99.90;;;;;;5073874;28;20486;-72
2021/05/07 11:36:58;;;;;;;2.90;2.60;;;11.00;99.40;;;;;;5073203;28;20702;-72
2021/05/07 11:39:24;;;;;;;2.40;2.03;;;10.90;99.70;;;;;;5065420;28;20457;-70
2021/05/07 11:41:49;;;;;;;4.23;2.90;;;11.10;99.90;;;;;;5040825;28;20472;-72
2021/05/07 11:44:15;;;;;;;2.60;2.40;;;11.20;99.70;;;;;;5047279;28;20460;-72
2021/05/07 11:46:41;;;;;;;3.90;2.30;;;11.00;99.10;;;;;;5077123;28;20235;-71
2021/05/07 11:49:06;;;;;;;2.00;1.90;;;11.20;99.90;;;;;;5071121;28;20277;-72
2021/05/07 11:51:34;;;;;;;2.33;2.13;;;11.30;99.30;;;;;;5077919;28;20272;-72
2021/05/07 11:54:00;;;;;;;2.37;2.03;;;11.20;99.40;;;;;;5053900;28;20219;-72
2021/05/07 11:56:27;;;;;;;3.40;3.10;;;11.10;99.30;;;;;;5062026;28;20487;-72
2021/05/07 11:58:53;;;;;;;3.63;2.83;;;11.00;98.60;;;;;;5069118;28;20690;-72
2021/05/07 12:01:20;;;;;;;3.27;3.00;;;11.00;99.80;;;;;;5092242;28;20830;-71
2021/05/07 12:03:47;;;;;;;2.90;2.70;;;11.10;99.00;;;;;;5040313;28;20476;-72
2021/05/07 12:06:28;;;;;;;3.60;3.30;;;11.20;98.00;;;;;;5079253;28;20544;-71
2021/05/07 12:08:55;;;;;;;1.73;1.63;;;11.20;99.00;;;;;;5070621;28;20522;-72
2021/05/07 12:11:21;;;;;;;3.50;3.20;;;11.10;96.90;;;;;;5056674;28;20524;-72
2021/05/07 12:13:47;;;;;;;3.00;2.70;;;11.00;97.60;;;;;;5043941;28;20916;-72
2021/05/07 12:16:14;;;;;;;3.47;3.17;;;11.10;97.90;;;;;;5060537;28;20329;-72
2021/05/07 12:18:49;;;;;;;2.60;2.40;;;11.20;98.90;;;;;;5081482;28;20453;-69
2021/05/07 12:21:14;;;;;;;3.77;2.60;;;11.60;99.90;;;;;;5038494;28;20520;-72
2021/05/07 12:23:48;;;;;;;3.60;3.23;;;11.40;98.00;;;;;;5040985;28;20465;-71
2021/05/07 12:26:15;;;;;;;7.23;3.53;;;11.60;98.40;;;;;;5088229;28;20223;-71
2021/05/07 12:28:56;;;;;;;2.30;1.93;;;11.50;97.30;;;;;;5065825;28;20446;-72
2021/05/07 12:31:32;;;;;;;4.03;3.40;;;11.30;97.30;;;;;;5051534;28;20488;-72
2021/05/07 12:33:58;;;;;;;2.80;2.60;;;11.20;97.10;;;;;;5018345;28;20476;-72
2021/05/07 12:36:24;;;;;;;2.40;2.20;;;11.10;96.90;;;;;;5069634;28;20450;-72
2021/05/07 12:38:54;;;;;;;3.50;3.13;;;11.00;96.80;;;;;;5071713;28;21004;-72
2021/05/07 12:41:22;;;;;;;3.27;2.90;;;11.10;98.10;;;;;;5069202;28;20591;-72
2021/05/07 12:43:49;;;;;;;2.40;2.20;;;11.30;97.60;;;;;;5059664;28;20469;-71
2021/05/07 12:46:16;;;;;;;3.40;3.10;;;11.20;96.90;;;;;;5059830;28;20953;-72
2021/05/07 12:48:49;;;;;;;2.97;2.77;;;11.00;96.10;;;;;;5071695;28;20457;-72
2021/05/07 12:51:16;;;;;;;2.30;2.10;;;10.90;95.90;;;;;;5087622;28;20456;-72
2021/05/07 12:53:43;;;;;;;3.00;2.80;;;11.00;95.70;;;;;;5052380;28;20458;-72
2021/05/07 12:56:12;;;;;;;2.10;1.90;;;10.80;94.80;;;;;;5026336;28;20868;-72
2021/05/07 12:58:37;;;;;;;3.43;3.13;;;11.00;95.10;;;;;;5061497;28;20862;-73
2021/05/07 13:01:03;;;;;;;3.17;2.87;;;11.00;95.10;;;;;;5069792;28;20446;-72
2021/05/07 13:03:29;;;;;;;2.43;2.20;;;11.10;96.30;;;;;;5053048;28;20772;-72